Montana City, Montana
Current Conditions -  °F | °C
As of 2:53 AM on Tuesday 21 Oct 2014 (Local Time) from KHLN Reporting Station
Clear Clear  
Wind Chill: 52°   Ceiling: Unl
Heat Index: 52°   Visibility: 10mi
Dew Point: 35°   Wind: 5mph
Humidity: 53%   Direction: 290°WNW
Pressure: 29.72"   Gusts: NA
Location:  46.4035°N, 112.119°W
Report Text: KHLN 210853Z AUTO 29004KT 10SM CLR 11/02 A2972 RMK AO2 SLP054 T01110017 58002
Loading
Personal Weather Stations






























Interactive Weather Map
Tropical Storm Tracking
New forecast layout! Learn more

10-Day Weather Forecast

Advertisements
Track Severe Weather on mobile